Latest Coastal Weather Observations for Avalon

IDV60701

Issued at 7:21 am EST Friday 4 September 2015 (issued every 10 minutes, with the page automatically refreshed every 10 minutes)

About coastal observations | Map of coastal stations | Coastal observations for VIC | Marine services | Other Formats
Station Details ID: 087113 Name: AVALON AIRPORT Lat: -38.03 Lon: 144.48 Height: 10.6 m
Data from the previous 72 hours. | See also: Recent months at Avalon
Date/Time
EST
Temp

°C
Wind Pressure Rain
since 9am
mm
Weather Cloud Vis
km
Sea
Height
m
Swell
Dir
 
Speed
knots
Gust
knots
hPa Trend Height
m
Period
s
Dir
04/07:00am 6.8 NW 5 6 1025.3 - 0.0 - Cloudy 10 - - - -
04/06:30am 5.9 NW 5 5 1025.0 - 0.0 - Cloudy 10 - - - -
04/06:00am 5.6 NW 4 5 1024.9 - 0.0 - Mostly cloudy 10 - - - -
04/05:30am 6.6 WNW 5 6 1024.7 - 0.0 - Cloudy 10 - - - -
04/05:00am 6.8 WNW 5 6 1024.4 - 0.0 - Cloudy 10 - - - -
04/04:30am 7.0 WNW 5 6 1024.2 - 0.0 - Partly cloudy 10 - - - -
04/04:00am 7.2 W 5 6 1024.2 - 0.0 - Cloudy 10 - - - -
04/03:30am 7.4 WNW 5 7 1024.0 - 0.0 - Partly cloudy 10 - - - -
04/03:00am 7.5 W 4 6 1024.0 - 0.0 - Cloudy 10 - - - -
04/02:30am 7.3 W 6 7 1023.9 - 0.0 - Cloudy 10 - - - -
04/02:00am 7.6 W 5 6 1024.2 - 0.0 - Cloudy 10 - - - -
04/01:30am 7.8 WNW 6 8 1024.2 - 0.0 - Cloudy 10 - - - -
04/01:00am 7.9 W 5 8 1024.1 - 0.0 - Cloudy 10 - - - -
04/12:30am 7.3 WNW 5 6 1024.2 - 0.0 - Cloudy 10 - - - -
04/12:00am 7.3 W 4 5 1024.0 - 0.0 - Cloudy 10 - - - -
 
Date/Time
EST
Temp

°C
Wind Pressure Rain
since 9am
mm
Weather Cloud Vis
km
Sea
Height
m
Swell
Dir
 
Speed
knots
Gust
knots
hPa Trend Height
m
Period
s
Dir
03/11:30pm 7.4 W 7 8 1023.9 - 0.0 - Cloudy 10 - - - -
03/11:00pm 7.1 W 7 9 1023.8 - 0.0 - Partly cloudy 10 - - - -
03/10:30pm 8.0 W 5 6 1023.7 - 0.0 - Cloudy 10 - - - -
03/10:00pm 9.4 WSW 9 11 1023.5 - 0.0 - Cloudy 10 - - - -
03/09:30pm 9.7 WSW 8 11 1023.3 - 0.0 - Cloudy 10 - - - -
03/09:00pm 9.8 SW 8 10 1022.9 - 0.0 - Mostly cloudy 10 - - - -
03/08:30pm 10.0 SW 8 11 1022.6 - 0.0 - Partly cloudy 10 - - - -
03/08:00pm 10.2 SW 9 11 1022.3 - 0.0 - Partly cloudy 10 - - - -
03/07:30pm 10.4 SW 10 13 1021.9 - 0.0 - Partly cloudy 10 - - - -
03/07:00pm 9.9 SW 9 11 1021.6 - 0.0 - Partly cloudy 10 - - - -
03/06:30pm 10.3 SSW 11 16 1021.2 - 0.0 - Partly cloudy 10 - - - -
03/06:00pm 10.6 SSW 11 14 1020.6 - 0.0 - Mostly cloudy 10 - - - -
03/05:30pm 11.1 SSW 12 14 1020.1 - 0.0 - Partly cloudy 10 - - - -
03/05:00pm 11.6 SSW 11 17 1019.7 - 0.0 - Partly cloudy 10 - - - -
03/04:30pm 11.5 SW 15 20 1019.2 - 0.0 - Partly cloudy 10 - - - -
03/04:00pm 12.1 SW 15 19 1018.7 - 0.0 - Partly cloudy 10 - - - -
03/03:30pm 12.7 SSW 16 19 1018.2 - 0.0 - Partly cloudy 10 - - - -
03/03:00pm 13.1 S 19 23 1017.6 - 0.0 - Mostly cloudy 10 - - - -
03/02:30pm 13.6 SSW 19 25 1017.3 - 0.0 - Partly cloudy 10 - - - -
03/02:00pm 13.6 S 18 22 1017.0 - 0.0 - Partly cloudy 10 - - - -
03/01:30pm 12.8 SSW 17 22 1017.0 - 0.0 - Cloudy 10 - - - -
03/01:00pm 13.2 SSW 17 21 1016.8 - 0.0 - Partly cloudy 10 - - - -
03/12:30pm 12.8 SSW 17 21 1016.7 - 0.0 - Partly cloudy 10 - - - -
03/12:00pm 12.9 SSW 17 21 1016.4 - 0.0 - Cloudy 10 - - - -
03/11:30am 13.1 SSW 13 17 1016.0 - 0.0 - Partly cloudy 10 - - - -
03/11:00am 13.0 SSW 16 19 1015.7 - 0.0 - Partly cloudy 10 - - - -
03/10:30am 12.8 SSW 16 20 1015.1 - 0.0 - Partly cloudy 10 - - - -
03/10:00am 12.9 SSW 15 20 1014.7 - 0.0 - Partly cloudy 10 - - - -
03/09:30am 13.0 SSW 16 21 1014.2 - 0.0 - Cloudy 10 - - - -
03/09:00am 13.1 SSW 13 17 1013.4 - 8.0 Fine Cloudy 10 - - - -
03/08:30am 12.5 SSW 15 19 1012.7 - - - Cloudy 10 - - - -
03/08:00am 12.1 SSW 13 17 1012.1 - - - Partly cloudy 10 - - - -
03/07:30am 11.7 SSW 12 16 1011.4 - - - Partly cloudy 10 - - - -
03/07:00am 11.3 SSW 9 11 1010.8 - - - Partly cloudy 10 - - - -
03/06:30am 11.2 SSW 9 11 1010.3 - - - Partly cloudy 10 - - - -
03/06:00am 11.1 SSW 7 9 1009.8 - - - Cloudy 10 - - - -
03/05:30am 11.3 SSW 10 11 1009.6 - - - Cloudy 10 - - - -
03/05:00am 11.3 SSW 8 10 1009.1 - - - Cloudy 10 - - - -
03/04:30am 11.4 SSW 10 11 1008.7 - - - Partly cloudy 10 - - - -
03/04:00am 11.4 SSW 9 11 1008.5 - - - Cloudy 10 - - - -
03/03:30am 11.3 S 8 9 1008.1 - - - Partly cloudy 10 - - - -
03/03:00am 11.1 SSW 10 12 1008.0 - 0.4 - Cloudy 10 - - - -
03/02:30am 10.8 S 8 10 1007.9 - - - Cloudy 10 - - - -
03/02:00am 10.1 S 6 8 1007.9 - - - Partly cloudy 10 - - - -
03/01:30am 9.8 CALM 0 0 1007.8 - - - Cloudy 10 - - - -
03/01:00am 9.9 NW 2 6 1007.8 - - - Cloudy 10 - - - -
03/12:30am 10.4 NE 3 5 1007.7 - - - Partly cloudy 10 - - - -
03/12:00am 10.2 CALM 0 0 1007.6 - - Recent precip. Cloudy 10 - - - -
 
Date/Time
EST
Temp

°C
Wind Pressure Rain
since 9am
mm
Weather Cloud Vis
km
Sea
Height
m
Swell
Dir
 
Speed
knots
Gust
knots
hPa Trend Height
m
Period
s
Dir
02/11:30pm 10.4 CALM 0 3 1007.8 - - - Cloudy 10 - - - -
02/11:00pm 10.6 ESE 5 6 1007.7 - - - Partly cloudy 10 - - - -
02/10:30pm 10.7 ESE 7 8 1007.7 - - - Partly cloudy 10 - - - -
02/10:00pm 10.7 ESE 7 8 1007.9 - - - Partly cloudy 10 - - - -
02/09:30pm 10.6 ESE 7 8 1008.1 - - - Cloudy 10 - - - -
02/09:00pm 10.6 ESE 6 7 1008.3 - 7.0 Rain Mostly cloudy 10 - - - -
02/08:30pm 10.8 E 3 5 1008.4 - - - Partly cloudy 9 - - - -
02/08:00pm 10.8 SE 4 5 1008.5 - - - Partly cloudy 10 - - - -
02/07:30pm 10.9 SE 5 5 1008.4 - - - Cloudy 10 - - - -
02/07:00pm 11.0 SE 3 4 1008.3 - - - Cloudy 10 - - - -
02/06:46pm 11.2 ESE 3 4 1008.3 - - - Cloudy 10 - - - -
02/06:30pm 11.4 ESE 2 5 1008.3 - - - Partly cloudy 6 - - - -
02/06:00pm 11.7 ESE 4 5 1008.0 - - Rain Cloudy 10 - - - -
02/05:30pm 12.7 ENE 4 5 1007.8 - - - Cloudy 10 - - - -
02/05:00pm 12.9 ENE 1 4 1007.4 - - - Cloudy 10 - - - -
02/04:30pm 12.9 ESE 5 6 1007.1 - - - Partly cloudy 10 - - - -
02/04:00pm 13.3 ESE 4 5 1006.6 - - - Cloudy 10 - - - -
02/03:30pm 14.1 NE 5 7 1006.6 - - - Cloudy 10 - - - -
02/03:00pm 14.0 NE 7 10 1007.0 - - Rain Cloudy 10 - - - -
02/02:30pm 15.0 NNE 12 17 1007.1 - - - Cloudy 10 - - - -
02/02:00pm 16.4 NNE 13 17 1007.4 - - - Partly cloudy 10 - - - -
02/01:30pm 16.7 NNE 18 23 1008.0 - - - Partly cloudy 10 - - - -
02/01:00pm 17.4 - - - 1008.6 - - - - - - - - -
02/12:30pm 17.8 - - - 1009.3 - - - - - - - - -
02/12:00pm 16.3 NNE 17 22 1009.9 - 0.0 - Cloudy 10 - - - -
02/11:30am 15.8 NNE 19 25 1010.1 - 0.0 - - - - - - -
02/11:00am 15.2 NNE 18 25 1010.4 - 0.0 - Cloudy 10 - - - -
02/10:30am 14.9 NNE 17 22 1010.5 - 0.0 - Partly cloudy 10 - - - -
02/10:00am 14.2 NNE 18 25 1010.8 - 0.0 - - 10 - - - -
02/09:30am 13.3 NNE 16 22 1011.2 - 0.0 - - 10 - - - -
02/09:00am 12.7 NNE 12 16 1011.6 - 0.0 - Partly cloudy 10 - - - -
02/08:30am 12.5 NNE 13 16 1011.7 - 0.0 - - 10 - - - -
02/08:00am 10.7 NNE 10 14 1011.8 - 0.0 - - 10 - - - -
02/07:30am 10.2 NNE 11 14 1011.7 - 0.0 - - 10 - - - -
02/07:00am 9.5 NE 9 12 1011.7 - 0.0 - - 10 - - - -
02/06:30am 8.8 ENE 5 7 1011.7 - 0.0 - - 10 - - - -
02/06:00am 8.8 ENE 5 7 1011.8 - 0.0 - Cloudy 10 - - - -
02/05:30am 8.3 NE 6 8 1011.8 - 0.0 - Partly cloudy 10 - - - -
02/05:00am 7.6 NE 7 8 1011.7 - 0.0 - - 10 - - - -
02/04:30am 5.7 E 4 5 1011.8 - 0.0 - - 10 - - - -
02/04:00am 5.3 E 6 7 1011.8 - 0.0 - - 10 - - - -
02/03:30am 6.5 ENE 7 7 1011.8 - 0.0 - - 10 - - - -
02/03:00am 5.6 ENE 6 7 1012.1 - 0.0 - - 10 - - - -
02/02:30am 5.8 NE 6 7 1012.5 - 0.0 - - 10 - - - -
02/02:00am 5.9 ENE 7 8 1012.6 - 0.0 - - 10 - - - -
02/01:30am 5.9 NNE 5 7 1012.8 - 0.0 - - 10 - - - -
02/01:00am 6.0 NNE 7 9 1012.9 - 0.0 - - 10 - - - -
02/12:30am 7.0 NNE 9 11 1013.0 - 0.0 - - 10 - - - -
02/12:00am 7.1 NNE 9 11 1013.1 - 0.0 - - 10 - - - -
 
Date/Time
EST
Temp

°C
Wind Pressure Rain
since 9am
mm
Weather Cloud Vis
km
Sea
Height
m
Swell
Dir
 
Speed
knots
Gust
knots
hPa Trend Height
m
Period
s
Dir
01/11:30pm 7.4 NNE 10 13 1013.2 - 0.0 - - 10 - - - -
01/11:00pm 4.9 NNE 5 6 1013.5 - 0.0 - - 10 - - - -
01/10:30pm 6.0 NNE 5 6 1013.6 - 0.0 - - 10 - - - -
01/10:00pm 5.2 N 6 6 1013.7 - 0.0 - - 10 - - - -
01/09:30pm 5.6 NNW 4 6 1013.8 - 0.0 - - 10 - - - -
01/09:00pm 5.9 CALM 0 0 1013.9 - 0.0 - - 10 - - - -
01/08:30pm 6.9 CALM 0 0 1013.9 - 0.0 - - 10 - - - -
01/08:00pm 7.4 NE 4 5 1013.9 - 0.0 - - 10 - - - -
01/07:30pm 8.2 NNE 4 5 1013.7 - 0.0 - - 10 - - - -
01/07:00pm 8.6 NNE 5 6 1013.6 - 0.0 - - 10 - - - -
01/06:30pm 9.4 NE 5 5 1013.5 - 0.0 - - 10 - - - -
01/06:00pm 10.4 ENE 6 8 1013.2 - 0.0 - - 10 - - - -
01/05:30pm 11.1 E 7 8 1013.1 - 0.0 - - 10 - - - -
01/05:00pm 12.0 E 8 10 1012.8 - 0.0 - - 10 - - - -
01/04:30pm 12.5 ESE 9 11 1013.0 - 0.0 - - 10 - - - -
01/04:00pm 13.1 ESE 8 9 1013.4 - 0.0 - - 10 - - - -
01/03:30pm 12.7 SE 9 11 1013.7 - 0.0 - - 10 - - - -
01/03:00pm 12.9 ESE 9 11 1014.0 - 0.0 - Mostly cloudy 10 - - - -
01/02:30pm 12.7 ESE 9 13 1014.3 - 0.0 - - 10 - - - -
01/02:00pm 12.4 ESE 9 11 1014.3 - 0.0 - - 10 - - - -
01/01:30pm 11.9 SE 13 16 1014.6 - 0.0 - - 10 - - - -
01/01:00pm 12.9 ESE 11 14 1015.2 - 0.0 - - 10 - - - -
01/12:30pm 12.4 SE 5 11 1015.9 - 0.0 - - 10 - - - -
01/12:00pm 13.2 N 5 7 1016.5 - 0.0 - - 10 - - - -
01/11:30am 13.0 NNE 5 8 1017.1 - 0.0 - - 10 - - - -
01/11:00am 12.3 NNE 5 9 1017.3 - 0.0 - - 10 - - - -
01/10:30am 11.9 NNE 6 9 1017.3 - 0.0 - Partly cloudy 10 - - - -
01/10:00am 11.4 NE 3 6 1017.4 - 0.0 - Partly cloudy 10 - - - -
01/09:30am 10.2 NW 1 3 1017.5 - 0.0 - - 10 - - - -
01/09:00am 7.8 WNW 4 6 1017.5 - 0.0 - - 10 - - - -
01/08:30am 5.6 W 3 5 1017.3 - 0.0 - - 10 - - - -
01/08:00am 3.3 WNW 3 4 1017.4 - 0.0 - - 10 - - - -
01/07:30am 1.7 WNW 4 5 1017.3 - 0.0 - Partly cloudy 10 - - - -

Other Formats:

Comma delimited format used in spreadsheet applications
http://www.bom.gov.au/fwo/IDV60701/IDV60701.94854.axf

JavaScript Object Notation format (JSON) in row-major order
http://www.bom.gov.au/fwo/IDV60701/IDV60701.94854.json